Terminal Aerodrome Forecast
Issued by NWS

Home | Current Version | Previous Version | Text Only | Print | Product List | Glossary On
Versions: 1 2 3 4 5 6 7 8 9 10 11 12 13 14 15 16 17 18 19 20 21 22 23 24 25 26 27 28 29 30 31 32
747
FTUS41 KOKX 261505 AAC
TAFTEB
TAF AMD
KTEB 261505Z 2615/2712 06004KT P6SM FEW012 BKN250
     FM261600 07006KT P6SM FEW025 BKN250
     FM261900 12006KT P6SM FEW030 BKN250
     FM270100 VRB04KT P6SM FEW008 BKN250
     FM270800 VRB03KT 6SM BR BKN006=

USA.gov is the U.S. government's official web portal to all federal, state and local government web resources and services.